sensor_id;sensor_type;location;lat;lon;timestamp;P1;durP1;ratioP1;P2;durP2;ratioP2
19049;SDS011;9657;45.940;12.840;2023-04-29T00:01:22;4.77;;;3.90;;
19049;SDS011;9657;45.940;12.840;2023-04-29T00:03:49;4.15;;;3.67;;
19049;SDS011;9657;45.940;12.840;2023-04-29T00:06:16;5.53;;;3.92;;
19049;SDS011;9657;45.940;12.840;2023-04-29T00:08:43;4.85;;;4.25;;
19049;SDS011;9657;45.940;12.840;2023-04-29T00:11:11;5.15;;;4.05;;
19049;SDS011;9657;45.940;12.840;2023-04-29T00:13:39;5.82;;;4.47;;
19049;SDS011;9657;45.940;12.840;2023-04-29T00:16:06;6.15;;;3.92;;
19049;SDS011;9657;45.940;12.840;2023-04-29T00:18:34;4.75;;;4.15;;
19049;SDS011;9657;45.940;12.840;2023-04-29T00:21:01;5.47;;;4.00;;
19049;SDS011;9657;45.940;12.840;2023-04-29T00:23:30;3.95;;;3.55;;
19049;SDS011;9657;45.940;12.840;2023-04-29T00:25:57;4.95;;;3.88;;
19049;SDS011;9657;45.940;12.840;2023-04-29T00:28:25;4.63;;;3.88;;
19049;SDS011;9657;45.940;12.840;2023-04-29T00:30:52;4.82;;;3.90;;
19049;SDS011;9657;45.940;12.840;2023-04-29T00:33:20;6.03;;;4.30;;
19049;SDS011;9657;45.940;12.840;2023-04-29T00:35:47;4.50;;;4.00;;
19049;SDS011;9657;45.940;12.840;2023-04-29T00:38:14;5.55;;;4.15;;
19049;SDS011;9657;45.940;12.840;2023-04-29T00:40:41;4.85;;;3.67;;
19049;SDS011;9657;45.940;12.840;2023-04-29T00:43:08;4.28;;;3.90;;
19049;SDS011;9657;45.940;12.840;2023-04-29T00:45:37;4.40;;;4.00;;
19049;SDS011;9657;45.940;12.840;2023-04-29T00:48:05;4.20;;;3.80;;
19049;SDS011;9657;45.940;12.840;2023-04-29T00:50:32;6.00;;;4.00;;
19049;SDS011;9657;45.940;12.840;2023-04-29T00:52:59;4.10;;;3.65;;
19049;SDS011;9657;45.940;12.840;2023-04-29T00:55:26;5.22;;;3.72;;
19049;SDS011;9657;45.940;12.840;2023-04-29T00:57:54;4.53;;;4.05;;
19049;SDS011;9657;45.940;12.840;2023-04-29T01:02:59;4.03;;;3.63;;
19049;SDS011;9657;45.940;12.840;2023-04-29T01:05:26;4.78;;;4.25;;
19049;SDS011;9657;45.940;12.840;2023-04-29T01:07:59;5.53;;;4.00;;
19049;SDS011;9657;45.940;12.840;2023-04-29T01:10:38;4.22;;;3.83;;
19049;SDS011;9657;45.940;12.840;2023-04-29T01:13:11;6.38;;;4.05;;
19049;SDS011;9657;45.940;12.840;2023-04-29T01:15:46;4.15;;;3.75;;
19049;SDS011;9657;45.940;12.840;2023-04-29T01:18:23;4.43;;;3.85;;
19049;SDS011;9657;45.940;12.840;2023-04-29T01:20:52;4.93;;;4.00;;
19049;SDS011;9657;45.940;12.840;2023-04-29T01:23:25;4.03;;;3.63;;
19049;SDS011;9657;45.940;12.840;2023-04-29T01:25:52;5.03;;;4.20;;
19049;SDS011;9657;45.940;12.840;2023-04-29T01:28:22;4.55;;;3.65;;
19049;SDS011;9657;45.940;12.840;2023-04-29T01:30:59;6.03;;;4.32;;
19049;SDS011;9657;45.940;12.840;2023-04-29T01:33:32;4.03;;;3.70;;
19049;SDS011;9657;45.940;12.840;2023-04-29T01:36:08;4.40;;;4.00;;
19049;SDS011;9657;45.940;12.840;2023-04-29T01:38:46;4.53;;;4.05;;
19049;SDS011;9657;45.940;12.840;2023-04-29T01:41:26;4.70;;;3.78;;
19049;SDS011;9657;45.940;12.840;2023-04-29T01:43:59;4.45;;;3.70;;
19049;SDS011;9657;45.940;12.840;2023-04-29T01:46:29;4.15;;;3.78;;
19049;SDS011;9657;45.940;12.840;2023-04-29T01:48:57;5.90;;;4.10;;
19049;SDS011;9657;45.940;12.840;2023-04-29T01:51:24;3.97;;;3.33;;
19049;SDS011;9657;45.940;12.840;2023-04-29T01:53:53;4.78;;;3.63;;
19049;SDS011;9657;45.940;12.840;2023-04-29T01:56:21;6.40;;;4.40;;
19049;SDS011;9657;45.940;12.840;2023-04-29T01:58:48;5.05;;;3.90;;
19049;SDS011;9657;45.940;12.840;2023-04-29T02:01:15;4.88;;;3.83;;
19049;SDS011;9657;45.940;12.840;2023-04-29T02:03:42;4.20;;;3.80;;
19049;SDS011;9657;45.940;12.840;2023-04-29T02:06:09;6.20;;;3.77;;
19049;SDS011;9657;45.940;12.840;2023-04-29T02:08:36;4.18;;;3.67;;
19049;SDS011;9657;45.940;12.840;2023-04-29T02:11:05;4.03;;;3.53;;
19049;SDS011;9657;45.940;12.840;2023-04-29T02:13:32;5.20;;;3.83;;
19049;SDS011;9657;45.940;12.840;2023-04-29T02:16:05;5.22;;;3.97;;
19049;SDS011;9657;45.940;12.840;2023-04-29T02:18:33;5.72;;;3.92;;
19049;SDS011;9657;45.940;12.840;2023-04-29T02:21:00;3.92;;;3.40;;
19049;SDS011;9657;45.940;12.840;2023-04-29T02:23:28;4.73;;;3.80;;
19049;SDS011;9657;45.940;12.840;2023-04-29T02:25:55;5.10;;;3.40;;
19049;SDS011;9657;45.940;12.840;2023-04-29T02:28:23;8.52;;;3.55;;
19049;SDS011;9657;45.940;12.840;2023-04-29T02:30:50;5.45;;;3.88;;
19049;SDS011;9657;45.940;12.840;2023-04-29T02:33:18;4.18;;;3.78;;
19049;SDS011;9657;45.940;12.840;2023-04-29T02:35:45;3.90;;;3.50;;
19049;SDS011;9657;45.940;12.840;2023-04-29T02:38:12;4.00;;;3.63;;
19049;SDS011;9657;45.940;12.840;2023-04-29T02:40:40;3.88;;;3.53;;
19049;SDS011;9657;45.940;12.840;2023-04-29T02:43:08;4.03;;;3.53;;
19049;SDS011;9657;45.940;12.840;2023-04-29T02:45:36;3.90;;;3.53;;
19049;SDS011;9657;45.940;12.840;2023-04-29T02:48:04;4.30;;;3.35;;
19049;SDS011;9657;45.940;12.840;2023-04-29T02:50:31;4.00;;;3.53;;
19049;SDS011;9657;45.940;12.840;2023-04-29T02:52:58;5.07;;;3.53;;
19049;SDS011;9657;45.940;12.840;2023-04-29T02:55:25;3.72;;;3.42;;
19049;SDS011;9657;45.940;12.840;2023-04-29T02:57:52;4.20;;;3.72;;
19049;SDS011;9657;45.940;12.840;2023-04-29T03:00:19;3.25;;;2.92;;
19049;SDS011;9657;45.940;12.840;2023-04-29T03:02:48;4.60;;;3.85;;
19049;SDS011;9657;45.940;12.840;2023-04-29T03:05:18;4.15;;;3.28;;
19049;SDS011;9657;45.940;12.840;2023-04-29T03:07:45;4.63;;;3.47;;
19049;SDS011;9657;45.940;12.840;2023-04-29T03:10:12;3.95;;;3.55;;
19049;SDS011;9657;45.940;12.840;2023-04-29T03:12:39;6.30;;;3.40;;
19049;SDS011;9657;45.940;12.840;2023-04-29T03:15:06;5.15;;;3.47;;
19049;SDS011;9657;45.940;12.840;2023-04-29T03:17:34;3.58;;;3.28;;
19049;SDS011;9657;45.940;12.840;2023-04-29T03:20:03;5.05;;;3.70;;
19049;SDS011;9657;45.940;12.840;2023-04-29T03:22:32;3.92;;;3.53;;
19049;SDS011;9657;45.940;12.840;2023-04-29T03:24:59;5.03;;;3.53;;
19049;SDS011;9657;45.940;12.840;2023-04-29T03:27:26;4.40;;;3.28;;
19049;SDS011;9657;45.940;12.840;2023-04-29T03:29:53;3.83;;;3.40;;
19049;SDS011;9657;45.940;12.840;2023-04-29T03:32:20;4.22;;;3.78;;
19049;SDS011;9657;45.940;12.840;2023-04-29T03:34:47;3.20;;;2.90;;
19049;SDS011;9657;45.940;12.840;2023-04-29T03:37:16;4.60;;;3.67;;
19049;SDS011;9657;45.940;12.840;2023-04-29T03:39:43;3.75;;;3.13;;
19049;SDS011;9657;45.940;12.840;2023-04-29T03:42:10;3.70;;;3.15;;
19049;SDS011;9657;45.940;12.840;2023-04-29T03:44:37;3.88;;;3.30;;
19049;SDS011;9657;45.940;12.840;2023-04-29T03:47:04;3.28;;;2.97;;
19049;SDS011;9657;45.940;12.840;2023-04-29T03:49:31;3.80;;;3.30;;
19049;SDS011;9657;45.940;12.840;2023-04-29T03:51:58;5.10;;;3.80;;
19049;SDS011;9657;45.940;12.840;2023-04-29T03:54:27;5.47;;;3.30;;
19049;SDS011;9657;45.940;12.840;2023-04-29T03:56:54;3.90;;;3.15;;
19049;SDS011;9657;45.940;12.840;2023-04-29T03:59:21;3.58;;;3.17;;
19049;SDS011;9657;45.940;12.840;2023-04-29T04:01:48;3.77;;;3.30;;
19049;SDS011;9657;45.940;12.840;2023-04-29T04:04:15;3.35;;;3.05;;
19049;SDS011;9657;45.940;12.840;2023-04-29T04:06:42;3.72;;;3.30;;
19049;SDS011;9657;45.940;12.840;2023-04-29T04:09:15;4.72;;;3.20;;
19049;SDS011;9657;45.940;12.840;2023-04-29T04:11:43;3.83;;;3.38;;
19049;SDS011;9657;45.940;12.840;2023-04-29T04:14:10;3.70;;;3.40;;
19049;SDS011;9657;45.940;12.840;2023-04-29T04:16:38;4.67;;;2.93;;
19049;SDS011;9657;45.940;12.840;2023-04-29T04:19:05;4.28;;;3.10;;
19049;SDS011;9657;45.940;12.840;2023-04-29T04:21:32;3.20;;;2.90;;
19049;SDS011;9657;45.940;12.840;2023-04-29T04:23:59;5.00;;;2.97;;
19049;SDS011;9657;45.940;12.840;2023-04-29T04:26:26;3.38;;;2.83;;
19049;SDS011;9657;45.940;12.840;2023-04-29T04:28:54;3.88;;;3.25;;
19049;SDS011;9657;45.940;12.840;2023-04-29T04:31:21;3.83;;;3.08;;
19049;SDS011;9657;45.940;12.840;2023-04-29T04:33:48;3.38;;;3.00;;
19049;SDS011;9657;45.940;12.840;2023-04-29T04:36:15;3.47;;;3.10;;
19049;SDS011;9657;45.940;12.840;2023-04-29T04:38:42;3.28;;;2.97;;
19049;SDS011;9657;45.940;12.840;2023-04-29T04:41:09;3.33;;;2.90;;
19049;SDS011;9657;45.940;12.840;2023-04-29T04:43:36;3.05;;;2.80;;
19049;SDS011;9657;45.940;12.840;2023-04-29T04:46:10;4.40;;;3.20;;
19049;SDS011;9657;45.940;12.840;2023-04-29T04:48:37;4.13;;;2.72;;
19049;SDS011;9657;45.940;12.840;2023-04-29T04:51:07;3.45;;;3.15;;
19049;SDS011;9657;45.940;12.840;2023-04-29T04:53:35;4.70;;;3.17;;
19049;SDS011;9657;45.940;12.840;2023-04-29T04:56:02;3.33;;;2.78;;
19049;SDS011;9657;45.940;12.840;2023-04-29T04:58:30;3.67;;;2.83;;
19049;SDS011;9657;45.940;12.840;2023-04-29T05:00:57;2.92;;;2.53;;
19049;SDS011;9657;45.940;12.840;2023-04-29T05:03:25;4.22;;;3.00;;
19049;SDS011;9657;45.940;12.840;2023-04-29T05:05:53;3.75;;;3.10;;
19049;SDS011;9657;45.940;12.840;2023-04-29T05:08:20;3.17;;;2.83;;
19049;SDS011;9657;45.940;12.840;2023-04-29T05:10:47;3.47;;;2.70;;
19049;SDS011;9657;45.940;12.840;2023-04-29T05:13:14;4.85;;;2.95;;
19049;SDS011;9657;45.940;12.840;2023-04-29T05:15:41;3.10;;;2.80;;
19049;SDS011;9657;45.940;12.840;2023-04-29T05:18:09;3.95;;;2.95;;
19049;SDS011;9657;45.940;12.840;2023-04-29T05:20:37;3.65;;;3.03;;
19049;SDS011;9657;45.940;12.840;2023-04-29T05:23:04;3.95;;;2.65;;
19049;SDS011;9657;45.940;12.840;2023-04-29T05:25:31;3.47;;;2.63;;
19049;SDS011;9657;45.940;12.840;2023-04-29T05:27:58;3.80;;;2.80;;
19049;SDS011;9657;45.940;12.840;2023-04-29T05:30:25;4.05;;;3.00;;
19049;SDS011;9657;45.940;12.840;2023-04-29T05:32:52;4.05;;;2.83;;
19049;SDS011;9657;45.940;12.840;2023-04-29T05:35:20;5.97;;;2.85;;
19049;SDS011;9657;45.940;12.840;2023-04-29T05:37:48;2.78;;;2.58;;
19049;SDS011;9657;45.940;12.840;2023-04-29T05:40:15;3.92;;;2.83;;
19049;SDS011;9657;45.940;12.840;2023-04-29T05:42:42;3.42;;;2.83;;
19049;SDS011;9657;45.940;12.840;2023-04-29T05:45:10;5.32;;;2.83;;
19049;SDS011;9657;45.940;12.840;2023-04-29T05:47:37;4.10;;;3.05;;
19049;SDS011;9657;45.940;12.840;2023-04-29T05:50:04;4.65;;;2.72;;
19049;SDS011;9657;45.940;12.840;2023-04-29T05:52:32;4.30;;;2.80;;
19049;SDS011;9657;45.940;12.840;2023-04-29T05:55:01;4.82;;;2.92;;
19049;SDS011;9657;45.940;12.840;2023-04-29T05:57:28;3.35;;;2.72;;
19049;SDS011;9657;45.940;12.840;2023-04-29T05:59:55;2.95;;;2.63;;
19049;SDS011;9657;45.940;12.840;2023-04-29T06:02:23;3.90;;;2.53;;
19049;SDS011;9657;45.940;12.840;2023-04-29T06:04:50;3.08;;;2.65;;
19049;SDS011;9657;45.940;12.840;2023-04-29T06:07:17;6.55;;;2.70;;
19049;SDS011;9657;45.940;12.840;2023-04-29T06:09:45;3.83;;;2.65;;
19049;SDS011;9657;45.940;12.840;2023-04-29T06:12:13;5.32;;;2.55;;
19049;SDS011;9657;45.940;12.840;2023-04-29T06:14:40;3.13;;;2.40;;
19049;SDS011;9657;45.940;12.840;2023-04-29T06:17:08;4.65;;;3.30;;
19049;SDS011;9657;45.940;12.840;2023-04-29T06:19:35;5.53;;;2.80;;
19049;SDS011;9657;45.940;12.840;2023-04-29T06:22:02;3.58;;;2.58;;
19049;SDS011;9657;45.940;12.840;2023-04-29T06:24:29;3.63;;;2.90;;
19049;SDS011;9657;45.940;12.840;2023-04-29T06:26:56;4.25;;;3.13;;
19049;SDS011;9657;45.940;12.840;2023-04-29T06:29:24;3.55;;;2.55;;
19049;SDS011;9657;45.940;12.840;2023-04-29T06:31:51;5.20;;;2.67;;
19049;SDS011;9657;45.940;12.840;2023-04-29T06:34:20;3.08;;;2.47;;
19049;SDS011;9657;45.940;12.840;2023-04-29T06:36:47;3.22;;;2.53;;
19049;SDS011;9657;45.940;12.840;2023-04-29T06:39:14;3.28;;;2.55;;
19049;SDS011;9657;45.940;12.840;2023-04-29T06:41:41;6.32;;;3.30;;
19049;SDS011;9657;45.940;12.840;2023-04-29T06:44:08;4.65;;;2.15;;
19049;SDS011;9657;45.940;12.840;2023-04-29T06:46:37;2.72;;;2.53;;
19049;SDS011;9657;45.940;12.840;2023-04-29T06:49:04;3.50;;;2.53;;
19049;SDS011;9657;45.940;12.840;2023-04-29T06:51:31;2.53;;;2.30;;
19049;SDS011;9657;45.940;12.840;2023-04-29T06:53:59;4.07;;;2.47;;
19049;SDS011;9657;45.940;12.840;2023-04-29T06:56:26;4.53;;;2.83;;
19049;SDS011;9657;45.940;12.840;2023-04-29T06:58:53;4.65;;;2.40;;
19049;SDS011;9657;45.940;12.840;2023-04-29T07:01:20;2.90;;;2.67;;
19049;SDS011;9657;45.940;12.840;2023-04-29T07:03:49;3.33;;;2.30;;
19049;SDS011;9657;45.940;12.840;2023-04-29T07:06:16;3.47;;;2.58;;
19049;SDS011;9657;45.940;12.840;2023-04-29T07:08:43;3.03;;;2.28;;
19049;SDS011;9657;45.940;12.840;2023-04-29T07:11:10;3.88;;;2.40;;
19049;SDS011;9657;45.940;12.840;2023-04-29T07:13:37;3.47;;;2.42;;
19049;SDS011;9657;45.940;12.840;2023-04-29T07:16:04;2.67;;;2.47;;
19049;SDS011;9657;45.940;12.840;2023-04-29T07:18:39;5.60;;;2.30;;
19049;SDS011;9657;45.940;12.840;2023-04-29T07:21:08;2.87;;;2.53;;
19049;SDS011;9657;45.940;12.840;2023-04-29T07:23:35;5.00;;;2.50;;
19049;SDS011;9657;45.940;12.840;2023-04-29T07:26:07;3.43;;;2.30;;
19049;SDS011;9657;45.940;12.840;2023-04-29T07:28:35;2.53;;;2.33;;
19049;SDS011;9657;45.940;12.840;2023-04-29T07:31:02;2.63;;;2.27;;
19049;SDS011;9657;45.940;12.840;2023-04-29T07:33:29;3.60;;;2.30;;
19049;SDS011;9657;45.940;12.840;2023-04-29T07:35:57;3.17;;;2.67;;
19049;SDS011;9657;45.940;12.840;2023-04-29T07:38:25;2.53;;;2.33;;
19049;SDS011;9657;45.940;12.840;2023-04-29T07:40:53;3.63;;;2.63;;
19049;SDS011;9657;45.940;12.840;2023-04-29T07:43:20;2.40;;;2.20;;
19049;SDS011;9657;45.940;12.840;2023-04-29T07:45:47;3.05;;;2.30;;
19049;SDS011;9657;45.940;12.840;2023-04-29T07:48:14;2.80;;;2.30;;
19049;SDS011;9657;45.940;12.840;2023-04-29T07:50:41;3.03;;;2.30;;
19049;SDS011;9657;45.940;12.840;2023-04-29T07:53:08;3.45;;;2.40;;
19049;SDS011;9657;45.940;12.840;2023-04-29T07:55:37;3.13;;;2.50;;
19049;SDS011;9657;45.940;12.840;2023-04-29T07:58:04;3.60;;;2.43;;
19049;SDS011;9657;45.940;12.840;2023-04-29T08:00:31;2.67;;;2.27;;
19049;SDS011;9657;45.940;12.840;2023-04-29T08:02:58;2.53;;;2.03;;
19049;SDS011;9657;45.940;12.840;2023-04-29T08:05:26;4.83;;;2.20;;
19049;SDS011;9657;45.940;12.840;2023-04-29T08:07:54;2.60;;;2.40;;
19049;SDS011;9657;45.940;12.840;2023-04-29T08:10:21;5.45;;;2.40;;
19049;SDS011;9657;45.940;12.840;2023-04-29T08:12:50;2.30;;;2.07;;
19049;SDS011;9657;45.940;12.840;2023-04-29T08:15:17;3.73;;;2.20;;
19049;SDS011;9657;45.940;12.840;2023-04-29T08:17:44;2.87;;;2.20;;
19049;SDS011;9657;45.940;12.840;2023-04-29T08:20:11;4.28;;;2.47;;
19049;SDS011;9657;45.940;12.840;2023-04-29T08:22:39;3.08;;;2.00;;
19049;SDS011;9657;45.940;12.840;2023-04-29T08:25:07;4.30;;;2.00;;
19049;SDS011;9657;45.940;12.840;2023-04-29T08:27:34;2.40;;;1.90;;
19049;SDS011;9657;45.940;12.840;2023-04-29T08:30:03;1.90;;;1.77;;
19049;SDS011;9657;45.940;12.840;2023-04-29T08:32:31;5.33;;;2.40;;
19049;SDS011;9657;45.940;12.840;2023-04-29T08:34:59;3.33;;;1.93;;
19049;SDS011;9657;45.940;12.840;2023-04-29T08:37:26;2.45;;;2.10;;
19049;SDS011;9657;45.940;12.840;2023-04-29T08:39:53;2.67;;;2.23;;
19049;SDS011;9657;45.940;12.840;2023-04-29T08:42:25;4.53;;;2.20;;
19049;SDS011;9657;45.940;12.840;2023-04-29T08:44:58;3.40;;;2.38;;
19049;SDS011;9657;45.940;12.840;2023-04-29T08:47:29;2.22;;;2.03;;
19049;SDS011;9657;45.940;12.840;2023-04-29T08:49:57;2.42;;;2.20;;
19049;SDS011;9657;45.940;12.840;2023-04-29T08:52:29;2.33;;;1.97;;
19049;SDS011;9657;45.940;12.840;2023-04-29T08:54:56;3.10;;;2.30;;
19049;SDS011;9657;45.940;12.840;2023-04-29T08:57:24;2.88;;;2.42;;
19049;SDS011;9657;45.940;12.840;2023-04-29T08:59:52;2.30;;;1.98;;
19049;SDS011;9657;45.940;12.840;2023-04-29T09:02:19;2.03;;;1.83;;
19049;SDS011;9657;45.940;12.840;2023-04-29T09:04:52;2.88;;;2.33;;
19049;SDS011;9657;45.940;12.840;2023-04-29T09:07:26;2.45;;;2.22;;
19049;SDS011;9657;45.940;12.840;2023-04-29T09:09:54;3.35;;;1.80;;
19049;SDS011;9657;45.940;12.840;2023-04-29T09:12:23;2.67;;;1.98;;
19049;SDS011;9657;45.940;12.840;2023-04-29T09:14:50;3.22;;;2.25;;
19049;SDS011;9657;45.940;12.840;2023-04-29T09:17:17;2.30;;;2.10;;
19049;SDS011;9657;45.940;12.840;2023-04-29T09:19:44;2.08;;;1.73;;
19049;SDS011;9657;45.940;12.840;2023-04-29T09:22:12;4.10;;;2.30;;
19049;SDS011;9657;45.940;12.840;2023-04-29T09:24:40;2.40;;;2.05;;
19049;SDS011;9657;45.940;12.840;2023-04-29T09:27:08;2.75;;;2.25;;
19049;SDS011;9657;45.940;12.840;2023-04-29T09:29:35;2.25;;;2.10;;
19049;SDS011;9657;45.940;12.840;2023-04-29T09:32:17;2.60;;;2.08;;
19049;SDS011;9657;45.940;12.840;2023-04-29T09:34:45;2.83;;;2.05;;
19049;SDS011;9657;45.940;12.840;2023-04-29T09:37:23;2.17;;;1.85;;
19049;SDS011;9657;45.940;12.840;2023-04-29T09:39:52;2.40;;;1.92;;
19049;SDS011;9657;45.940;12.840;2023-04-29T09:42:20;2.20;;;2.03;;
19049;SDS011;9657;45.940;12.840;2023-04-29T09:44:47;2.95;;;2.15;;
19049;SDS011;9657;45.940;12.840;2023-04-29T09:47:14;2.08;;;1.88;;
19049;SDS011;9657;45.940;12.840;2023-04-29T09:49:41;1.60;;;1.50;;
19049;SDS011;9657;45.940;12.840;2023-04-29T09:52:11;2.20;;;2.00;;
19049;SDS011;9657;45.940;12.840;2023-04-29T09:54:40;2.97;;;1.80;;
19049;SDS011;9657;45.940;12.840;2023-04-29T09:57:09;2.15;;;1.95;;
19049;SDS011;9657;45.940;12.840;2023-04-29T09:59:37;3.08;;;2.10;;
19049;SDS011;9657;45.940;12.840;2023-04-29T10:02:06;3.08;;;1.92;;
19049;SDS011;9657;45.940;12.840;2023-04-29T10:04:39;2.38;;;2.10;;
19049;SDS011;9657;45.940;12.840;2023-04-29T10:07:07;2.20;;;1.77;;
19049;SDS011;9657;45.940;12.840;2023-04-29T10:09:40;2.72;;;1.98;;
19049;SDS011;9657;45.940;12.840;2023-04-29T10:12:07;3.20;;;2.05;;
19049;SDS011;9657;45.940;12.840;2023-04-29T10:14:37;2.33;;;2.03;;
19049;SDS011;9657;45.940;12.840;2023-04-29T10:17:09;2.53;;;1.90;;
19049;SDS011;9657;45.940;12.840;2023-04-29T10:19:44;2.88;;;1.90;;
19049;SDS011;9657;45.940;12.840;2023-04-29T10:22:18;2.47;;;2.13;;
19049;SDS011;9657;45.940;12.840;2023-04-29T10:24:53;4.30;;;2.03;;
19049;SDS011;9657;45.940;12.840;2023-04-29T10:27:23;3.95;;;1.90;;
19049;SDS011;9657;45.940;12.840;2023-04-29T10:29:51;2.55;;;2.10;;
19049;SDS011;9657;45.940;12.840;2023-04-29T10:32:20;2.42;;;2.22;;
19049;SDS011;9657;45.940;12.840;2023-04-29T10:34:47;2.45;;;2.25;;
19049;SDS011;9657;45.940;12.840;2023-04-29T10:37:17;2.35;;;1.92;;
19049;SDS011;9657;45.940;12.840;2023-04-29T10:39:45;4.43;;;2.00;;
19049;SDS011;9657;45.940;12.840;2023-04-29T10:42:20;2.47;;;2.08;;
19049;SDS011;9657;45.940;12.840;2023-04-29T10:47:58;2.80;;;1.70;;
19049;SDS011;9657;45.940;12.840;2023-04-29T10:50:39;2.85;;;2.17;;
19049;SDS011;9657;45.940;12.840;2023-04-29T10:53:24;5.57;;;2.17;;
19049;SDS011;9657;45.940;12.840;2023-04-29T10:55:55;1.88;;;1.67;;
19049;SDS011;9657;45.940;12.840;2023-04-29T10:58:35;3.03;;;1.95;;
19049;SDS011;9657;45.940;12.840;2023-04-29T11:01:03;2.22;;;2.03;;
19049;SDS011;9657;45.940;12.840;2023-04-29T11:03:47;2.25;;;1.88;;
19049;SDS011;9657;45.940;12.840;2023-04-29T11:06:19;2.42;;;1.85;;
19049;SDS011;9657;45.940;12.840;2023-04-29T11:08:58;2.20;;;2.00;;
19049;SDS011;9657;45.940;12.840;2023-04-29T11:11:38;2.13;;;1.88;;
19049;SDS011;9657;45.940;12.840;2023-04-29T11:14:08;2.92;;;2.08;;
19049;SDS011;9657;45.940;12.840;2023-04-29T11:16:36;2.08;;;1.70;;
19049;SDS011;9657;45.940;12.840;2023-04-29T11:19:04;2.25;;;2.05;;
19049;SDS011;9657;45.940;12.840;2023-04-29T11:21:33;2.15;;;1.92;;
19049;SDS011;9657;45.940;12.840;2023-04-29T11:24:00;4.10;;;2.05;;
19049;SDS011;9657;45.940;12.840;2023-04-29T11:26:28;1.88;;;1.73;;
19049;SDS011;9657;45.940;12.840;2023-04-29T11:28:55;4.75;;;2.15;;
19049;SDS011;9657;45.940;12.840;2023-04-29T11:31:29;2.28;;;2.08;;
19049;SDS011;9657;45.940;12.840;2023-04-29T11:33:56;2.13;;;1.92;;
19049;SDS011;9657;45.940;12.840;2023-04-29T11:36:24;5.35;;;2.00;;
19049;SDS011;9657;45.940;12.840;2023-04-29T11:38:51;3.00;;;2.05;;
19049;SDS011;9657;45.940;12.840;2023-04-29T11:41:18;1.95;;;1.77;;
19049;SDS011;9657;45.940;12.840;2023-04-29T11:43:47;2.20;;;1.73;;
19049;SDS011;9657;45.940;12.840;2023-04-29T11:46:20;2.75;;;1.73;;
19049;SDS011;9657;45.940;12.840;2023-04-29T11:48:49;2.28;;;2.08;;
19049;SDS011;9657;45.940;12.840;2023-04-29T11:51:16;3.22;;;1.90;;
19049;SDS011;9657;45.940;12.840;2023-04-29T11:53:45;2.33;;;1.95;;
19049;SDS011;9657;45.940;12.840;2023-04-29T11:56:12;2.22;;;1.75;;
19049;SDS011;9657;45.940;12.840;2023-04-29T11:58:40;2.50;;;2.17;;
19049;SDS011;9657;45.940;12.840;2023-04-29T12:01:08;1.92;;;1.80;;
19049;SDS011;9657;45.940;12.840;2023-04-29T12:03:35;1.92;;;1.83;;
19049;SDS011;9657;45.940;12.840;2023-04-29T12:06:04;2.33;;;1.88;;
19049;SDS011;9657;45.940;12.840;2023-04-29T12:08:31;5.57;;;2.33;;
19049;SDS011;9657;45.940;12.840;2023-04-29T12:10:58;3.22;;;2.20;;
19049;SDS011;9657;45.940;12.840;2023-04-29T12:13:26;2.40;;;2.20;;
19049;SDS011;9657;45.940;12.840;2023-04-29T12:15:55;2.65;;;1.85;;
19049;SDS011;9657;45.940;12.840;2023-04-29T12:18:23;2.00;;;1.80;;
19049;SDS011;9657;45.940;12.840;2023-04-29T12:20:51;1.98;;;1.77;;
19049;SDS011;9657;45.940;12.840;2023-04-29T12:23:21;3.92;;;2.30;;
19049;SDS011;9657;45.940;12.840;2023-04-29T12:25:51;1.92;;;1.75;;
19049;SDS011;9657;45.940;12.840;2023-04-29T12:28:19;2.10;;;1.90;;
19049;SDS011;9657;45.940;12.840;2023-04-29T12:30:47;2.10;;;1.75;;
19049;SDS011;9657;45.940;12.840;2023-04-29T12:33:18;2.30;;;2.00;;
19049;SDS011;9657;45.940;12.840;2023-04-29T12:35:47;2.67;;;2.05;;
19049;SDS011;9657;45.940;12.840;2023-04-29T12:38:15;2.60;;;2.13;;
19049;SDS011;9657;45.940;12.840;2023-04-29T12:40:47;1.98;;;1.80;;
19049;SDS011;9657;45.940;12.840;2023-04-29T12:43:15;3.33;;;2.00;;
19049;SDS011;9657;45.940;12.840;2023-04-29T12:45:43;2.55;;;2.03;;
19049;SDS011;9657;45.940;12.840;2023-04-29T12:48:10;2.55;;;1.95;;
19049;SDS011;9657;45.940;12.840;2023-04-29T12:50:38;2.63;;;2.42;;
19049;SDS011;9657;45.940;12.840;2023-04-29T12:53:06;1.85;;;1.73;;
19049;SDS011;9657;45.940;12.840;2023-04-29T12:55:34;2.08;;;1.88;;
19049;SDS011;9657;45.940;12.840;2023-04-29T12:58:03;2.55;;;1.90;;
19049;SDS011;9657;45.940;12.840;2023-04-29T13:00:31;2.08;;;1.88;;
19049;SDS011;9657;45.940;12.840;2023-04-29T13:03:01;2.20;;;2.00;;
19049;SDS011;9657;45.940;12.840;2023-04-29T13:05:28;2.30;;;1.90;;
19049;SDS011;9657;45.940;12.840;2023-04-29T13:07:55;3.42;;;2.10;;
19049;SDS011;9657;45.940;12.840;2023-04-29T13:10:22;1.95;;;1.73;;
19049;SDS011;9657;45.940;12.840;2023-04-29T13:12:49;2.15;;;1.73;;
19049;SDS011;9657;45.940;12.840;2023-04-29T13:15:18;2.88;;;1.80;;
19049;SDS011;9657;45.940;12.840;2023-04-29T13:17:45;1.90;;;1.80;;
19049;SDS011;9657;45.940;12.840;2023-04-29T13:20:12;1.88;;;1.75;;
19049;SDS011;9657;45.940;12.840;2023-04-29T13:22:39;3.37;;;1.90;;
19049;SDS011;9657;45.940;12.840;2023-04-29T13:25:07;2.15;;;1.98;;
19049;SDS011;9657;45.940;12.840;2023-04-29T13:27:36;2.00;;;1.70;;
19049;SDS011;9657;45.940;12.840;2023-04-29T13:30:03;2.08;;;1.90;;
19049;SDS011;9657;45.940;12.840;2023-04-29T13:32:32;1.77;;;1.67;;
19049;SDS011;9657;45.940;12.840;2023-04-29T13:34:59;2.38;;;1.90;;
19049;SDS011;9657;45.940;12.840;2023-04-29T13:37:26;2.00;;;1.83;;
19049;SDS011;9657;45.940;12.840;2023-04-29T13:39:53;2.13;;;1.70;;
19049;SDS011;9657;45.940;12.840;2023-04-29T13:42:20;2.03;;;1.88;;
19049;SDS011;9657;45.940;12.840;2023-04-29T13:44:47;2.30;;;1.80;;
19049;SDS011;9657;45.940;12.840;2023-04-29T13:47:15;2.33;;;2.13;;
19049;SDS011;9657;45.940;12.840;2023-04-29T13:49:43;1.88;;;1.77;;
19049;SDS011;9657;45.940;12.840;2023-04-29T13:52:10;2.17;;;2.05;;
19049;SDS011;9657;45.940;12.840;2023-04-29T13:54:38;2.50;;;1.92;;
19049;SDS011;9657;45.940;12.840;2023-04-29T13:57:05;1.75;;;1.65;;
19049;SDS011;9657;45.940;12.840;2023-04-29T13:59:33;1.75;;;1.65;;
19049;SDS011;9657;45.940;12.840;2023-04-29T14:02:00;2.00;;;1.60;;
19049;SDS011;9657;45.940;12.840;2023-04-29T14:04:28;1.92;;;1.63;;
19049;SDS011;9657;45.940;12.840;2023-04-29T14:06:56;1.73;;;1.63;;
19049;SDS011;9657;45.940;12.840;2023-04-29T14:09:23;2.30;;;2.10;;
19049;SDS011;9657;45.940;12.840;2023-04-29T14:11:50;2.10;;;1.77;;
19049;SDS011;9657;45.940;12.840;2023-04-29T14:14:18;2.10;;;1.90;;
19049;SDS011;9657;45.940;12.840;2023-04-29T14:16:45;2.70;;;1.90;;
19049;SDS011;9657;45.940;12.840;2023-04-29T14:19:12;2.92;;;1.95;;
19049;SDS011;9657;45.940;12.840;2023-04-29T14:21:39;2.55;;;2.05;;
19049;SDS011;9657;45.940;12.840;2023-04-29T14:24:08;1.95;;;1.75;;
19049;SDS011;9657;45.940;12.840;2023-04-29T14:26:35;1.98;;;1.80;;
19049;SDS011;9657;45.940;12.840;2023-04-29T14:29:02;2.15;;;1.90;;
19049;SDS011;9657;45.940;12.840;2023-04-29T14:31:30;3.13;;;1.80;;
19049;SDS011;9657;45.940;12.840;2023-04-29T14:33:59;3.95;;;2.10;;
19049;SDS011;9657;45.940;12.840;2023-04-29T14:36:27;3.70;;;2.15;;
19049;SDS011;9657;45.940;12.840;2023-04-29T14:38:54;5.80;;;2.35;;
19049;SDS011;9657;45.940;12.840;2023-04-29T14:41:22;3.22;;;2.85;;
19049;SDS011;9657;45.940;12.840;2023-04-29T14:43:50;2.75;;;2.53;;
19049;SDS011;9657;45.940;12.840;2023-04-29T14:46:17;4.20;;;2.90;;
19049;SDS011;9657;45.940;12.840;2023-04-29T14:48:44;4.03;;;2.80;;
19049;SDS011;9657;45.940;12.840;2023-04-29T14:51:11;4.43;;;3.38;;
19049;SDS011;9657;45.940;12.840;2023-04-29T14:53:38;6.97;;;3.38;;
19049;SDS011;9657;45.940;12.840;2023-04-29T14:56:05;3.45;;;3.15;;
19049;SDS011;9657;45.940;12.840;2023-04-29T14:58:33;5.15;;;3.88;;
19049;SDS011;9657;45.940;12.840;2023-04-29T15:01:00;6.88;;;3.60;;